sensor_id;sensor_type;location;lat;lon;timestamp;temperature;humidity
18317;DHT22;9284;52.298;21.164;2023-09-12T00:01:36;15.50;99.90
18317;DHT22;9284;52.298;21.164;2023-09-12T00:04:05;15.40;99.90
18317;DHT22;9284;52.298;21.164;2023-09-12T00:06:34;15.40;99.90
18317;DHT22;9284;52.298;21.164;2023-09-12T00:09:02;15.40;99.90
18317;DHT22;9284;52.298;21.164;2023-09-12T00:11:32;15.40;99.90
18317;DHT22;9284;52.298;21.164;2023-09-12T00:14:02;15.40;99.90
18317;DHT22;9284;52.298;21.164;2023-09-12T00:16:30;15.30;99.90
18317;DHT22;9284;52.298;21.164;2023-09-12T00:18:59;15.30;99.90
18317;DHT22;9284;52.298;21.164;2023-09-12T00:21:27;15.20;99.90
18317;DHT22;9284;52.298;21.164;2023-09-12T00:23:55;15.20;99.90
18317;DHT22;9284;52.298;21.164;2023-09-12T00:26:24;15.20;99.90
18317;DHT22;9284;52.298;21.164;2023-09-12T00:28:53;15.20;99.90
18317;DHT22;9284;52.298;21.164;2023-09-12T00:31:22;15.20;99.90
18317;DHT22;9284;52.298;21.164;2023-09-12T00:33:51;15.10;99.90
18317;DHT22;9284;52.298;21.164;2023-09-12T00:36:19;15.10;99.90
18317;DHT22;9284;52.298;21.164;2023-09-12T00:38:48;15.10;99.90
18317;DHT22;9284;52.298;21.164;2023-09-12T00:41:17;15.00;99.90
18317;DHT22;9284;52.298;21.164;2023-09-12T00:43:45;14.90;99.90
18317;DHT22;9284;52.298;21.164;2023-09-12T00:46:18;14.90;99.90
18317;DHT22;9284;52.298;21.164;2023-09-12T00:48:49;14.90;99.90
18317;DHT22;9284;52.298;21.164;2023-09-12T00:51:20;14.90;99.90
18317;DHT22;9284;52.298;21.164;2023-09-12T00:53:49;14.90;99.90
18317;DHT22;9284;52.298;21.164;2023-09-12T00:56:18;14.90;99.90
18317;DHT22;9284;52.298;21.164;2023-09-12T00:58:46;14.90;99.90
18317;DHT22;9284;52.298;21.164;2023-09-12T01:01:14;14.90;99.90
18317;DHT22;9284;52.298;21.164;2023-09-12T01:03:43;14.90;99.90
18317;DHT22;9284;52.298;21.164;2023-09-12T01:06:14;14.90;99.90
18317;DHT22;9284;52.298;21.164;2023-09-12T01:08:43;14.80;99.90
18317;DHT22;9284;52.298;21.164;2023-09-12T01:11:13;14.80;99.90
18317;DHT22;9284;52.298;21.164;2023-09-12T01:13:41;14.80;99.90
18317;DHT22;9284;52.298;21.164;2023-09-12T01:16:10;14.80;99.90
18317;DHT22;9284;52.298;21.164;2023-09-12T01:18:38;14.80;99.90
18317;DHT22;9284;52.298;21.164;2023-09-12T01:24:23;14.80;99.90
18317;DHT22;9284;52.298;21.164;2023-09-12T01:27:17;14.70;99.90
18317;DHT22;9284;52.298;21.164;2023-09-12T01:29:46;14.70;99.90
18317;DHT22;9284;52.298;21.164;2023-09-12T01:32:18;14.70;99.90
18317;DHT22;9284;52.298;21.164;2023-09-12T01:34:48;14.70;99.90
18317;DHT22;9284;52.298;21.164;2023-09-12T01:37:16;14.70;99.90
18317;DHT22;9284;52.298;21.164;2023-09-12T01:39:44;14.70;99.90
18317;DHT22;9284;52.298;21.164;2023-09-12T01:42:16;14.70;99.90
18317;DHT22;9284;52.298;21.164;2023-09-12T01:44:47;14.70;99.90
18317;DHT22;9284;52.298;21.164;2023-09-12T01:47:18;14.60;99.90
18317;DHT22;9284;52.298;21.164;2023-09-12T01:49:51;14.60;99.90
18317;DHT22;9284;52.298;21.164;2023-09-12T01:52:21;14.60;99.90
18317;DHT22;9284;52.298;21.164;2023-09-12T01:54:50;14.60;99.90
18317;DHT22;9284;52.298;21.164;2023-09-12T01:57:20;14.60;99.90
18317;DHT22;9284;52.298;21.164;2023-09-12T01:59:49;14.50;99.90
18317;DHT22;9284;52.298;21.164;2023-09-12T02:02:18;14.50;99.90
18317;DHT22;9284;52.298;21.164;2023-09-12T02:04:54;14.50;99.90
18317;DHT22;9284;52.298;21.164;2023-09-12T02:07:31;14.50;99.90
18317;DHT22;9284;52.298;21.164;2023-09-12T02:10:01;14.50;99.90
18317;DHT22;9284;52.298;21.164;2023-09-12T02:12:31;14.50;99.90
18317;DHT22;9284;52.298;21.164;2023-09-12T02:14:59;14.40;99.90
18317;DHT22;9284;52.298;21.164;2023-09-12T02:17:28;14.40;99.90
18317;DHT22;9284;52.298;21.164;2023-09-12T02:19:56;14.40;99.90
18317;DHT22;9284;52.298;21.164;2023-09-12T02:22:24;14.40;99.90
18317;DHT22;9284;52.298;21.164;2023-09-12T02:24:55;14.40;99.90
18317;DHT22;9284;52.298;21.164;2023-09-12T02:27:23;14.30;99.90
18317;DHT22;9284;52.298;21.164;2023-09-12T02:29:54;14.30;99.90
18317;DHT22;9284;52.298;21.164;2023-09-12T02:32:22;14.30;99.90
18317;DHT22;9284;52.298;21.164;2023-09-12T02:34:51;14.20;99.90
18317;DHT22;9284;52.298;21.164;2023-09-12T02:37:20;14.30;99.90
18317;DHT22;9284;52.298;21.164;2023-09-12T02:39:48;14.20;99.90
18317;DHT22;9284;52.298;21.164;2023-09-12T02:42:16;14.20;99.90
18317;DHT22;9284;52.298;21.164;2023-09-12T02:44:45;14.20;99.90
18317;DHT22;9284;52.298;21.164;2023-09-12T02:47:16;14.10;99.90
18317;DHT22;9284;52.298;21.164;2023-09-12T02:49:44;14.10;99.90
18317;DHT22;9284;52.298;21.164;2023-09-12T02:52:13;14.10;99.90
18317;DHT22;9284;52.298;21.164;2023-09-12T02:54:42;14.10;99.90
18317;DHT22;9284;52.298;21.164;2023-09-12T02:57:13;14.00;99.90
18317;DHT22;9284;52.298;21.164;2023-09-12T02:59:42;14.10;99.90
18317;DHT22;9284;52.298;21.164;2023-09-12T03:02:10;14.00;99.90
18317;DHT22;9284;52.298;21.164;2023-09-12T03:04:40;14.00;99.90
18317;DHT22;9284;52.298;21.164;2023-09-12T03:07:08;13.90;99.90
18317;DHT22;9284;52.298;21.164;2023-09-12T03:09:37;13.90;99.90
18317;DHT22;9284;52.298;21.164;2023-09-12T03:12:06;13.90;99.90
18317;DHT22;9284;52.298;21.164;2023-09-12T03:14:36;13.90;99.90
18317;DHT22;9284;52.298;21.164;2023-09-12T03:17:04;13.80;99.90
18317;DHT22;9284;52.298;21.164;2023-09-12T03:19:33;13.80;99.90
18317;DHT22;9284;52.298;21.164;2023-09-12T03:22:03;13.70;99.90
18317;DHT22;9284;52.298;21.164;2023-09-12T03:24:32;13.70;99.90
18317;DHT22;9284;52.298;21.164;2023-09-12T03:27:00;13.70;99.90
18317;DHT22;9284;52.298;21.164;2023-09-12T03:29:29;13.70;99.90
18317;DHT22;9284;52.298;21.164;2023-09-12T03:31:58;13.70;99.90
18317;DHT22;9284;52.298;21.164;2023-09-12T03:34:26;13.60;99.90
18317;DHT22;9284;52.298;21.164;2023-09-12T03:36:54;13.60;99.90
18317;DHT22;9284;52.298;21.164;2023-09-12T03:39:24;13.60;99.90
18317;DHT22;9284;52.298;21.164;2023-09-12T03:41:53;13.50;99.90
18317;DHT22;9284;52.298;21.164;2023-09-12T03:44:21;13.50;99.90
18317;DHT22;9284;52.298;21.164;2023-09-12T03:46:49;13.50;99.90
18317;DHT22;9284;52.298;21.164;2023-09-12T03:49:18;13.50;99.90
18317;DHT22;9284;52.298;21.164;2023-09-12T03:51:47;13.50;99.90
18317;DHT22;9284;52.298;21.164;2023-09-12T03:54:15;13.60;99.90
18317;DHT22;9284;52.298;21.164;2023-09-12T03:56:45;13.50;99.90
18317;DHT22;9284;52.298;21.164;2023-09-12T03:59:16;13.50;99.90
18317;DHT22;9284;52.298;21.164;2023-09-12T04:01:45;13.50;99.90
18317;DHT22;9284;52.298;21.164;2023-09-12T04:04:14;13.50;99.90
18317;DHT22;9284;52.298;21.164;2023-09-12T04:06:44;13.40;99.90
18317;DHT22;9284;52.298;21.164;2023-09-12T04:09:14;13.40;99.90
18317;DHT22;9284;52.298;21.164;2023-09-12T04:11:44;13.40;99.90
18317;DHT22;9284;52.298;21.164;2023-09-12T04:14:14;13.40;99.90
18317;DHT22;9284;52.298;21.164;2023-09-12T04:16:43;13.40;99.90
18317;DHT22;9284;52.298;21.164;2023-09-12T04:19:13;13.40;99.90
18317;DHT22;9284;52.298;21.164;2023-09-12T04:21:42;13.50;99.90
18317;DHT22;9284;52.298;21.164;2023-09-12T04:24:10;13.50;99.90
18317;DHT22;9284;52.298;21.164;2023-09-12T04:26:39;13.50;99.90
18317;DHT22;9284;52.298;21.164;2023-09-12T04:29:08;13.50;99.90
18317;DHT22;9284;52.298;21.164;2023-09-12T04:31:37;13.60;99.90
18317;DHT22;9284;52.298;21.164;2023-09-12T04:34:05;13.60;99.90
18317;DHT22;9284;52.298;21.164;2023-09-12T04:36:34;13.70;99.90
18317;DHT22;9284;52.298;21.164;2023-09-12T04:39:02;13.70;99.90
18317;DHT22;9284;52.298;21.164;2023-09-12T04:41:32;13.80;99.90
18317;DHT22;9284;52.298;21.164;2023-09-12T04:44:00;13.90;99.90
18317;DHT22;9284;52.298;21.164;2023-09-12T04:46:31;14.00;99.90
18317;DHT22;9284;52.298;21.164;2023-09-12T04:48:59;14.10;99.90
18317;DHT22;9284;52.298;21.164;2023-09-12T04:51:27;14.20;99.90
18317;DHT22;9284;52.298;21.164;2023-09-12T04:53:56;14.30;99.90
18317;DHT22;9284;52.298;21.164;2023-09-12T04:56:24;14.40;99.90
18317;DHT22;9284;52.298;21.164;2023-09-12T04:58:52;14.50;99.90
18317;DHT22;9284;52.298;21.164;2023-09-12T05:01:21;14.60;99.90
18317;DHT22;9284;52.298;21.164;2023-09-12T05:03:50;14.60;99.90
18317;DHT22;9284;52.298;21.164;2023-09-12T05:06:19;14.80;99.90
18317;DHT22;9284;52.298;21.164;2023-09-12T05:08:47;14.80;99.90
18317;DHT22;9284;52.298;21.164;2023-09-12T05:11:16;14.90;99.90
18317;DHT22;9284;52.298;21.164;2023-09-12T05:13:44;15.00;99.90
18317;DHT22;9284;52.298;21.164;2023-09-12T05:16:12;15.10;99.90
18317;DHT22;9284;52.298;21.164;2023-09-12T05:18:41;15.20;99.90
18317;DHT22;9284;52.298;21.164;2023-09-12T05:21:12;15.30;99.90
18317;DHT22;9284;52.298;21.164;2023-09-12T05:23:40;15.30;99.90
18317;DHT22;9284;52.298;21.164;2023-09-12T05:26:10;15.50;99.90
18317;DHT22;9284;52.298;21.164;2023-09-12T05:28:38;15.60;99.90
18317;DHT22;9284;52.298;21.164;2023-09-12T05:31:07;15.70;99.90
18317;DHT22;9284;52.298;21.164;2023-09-12T05:33:36;15.80;99.90
18317;DHT22;9284;52.298;21.164;2023-09-12T05:36:05;15.90;99.90
18317;DHT22;9284;52.298;21.164;2023-09-12T05:38:35;16.00;99.90
18317;DHT22;9284;52.298;21.164;2023-09-12T05:41:03;16.20;99.90
18317;DHT22;9284;52.298;21.164;2023-09-12T05:43:31;16.30;99.90
18317;DHT22;9284;52.298;21.164;2023-09-12T05:46:00;16.40;99.90
18317;DHT22;9284;52.298;21.164;2023-09-12T05:48:28;16.50;99.90
18317;DHT22;9284;52.298;21.164;2023-09-12T05:50:57;16.70;99.90
18317;DHT22;9284;52.298;21.164;2023-09-12T05:53:25;16.90;99.90
18317;DHT22;9284;52.298;21.164;2023-09-12T05:55:55;17.20;99.90
18317;DHT22;9284;52.298;21.164;2023-09-12T05:58:23;17.50;99.90
18317;DHT22;9284;52.298;21.164;2023-09-12T06:00:52;17.80;99.90
18317;DHT22;9284;52.298;21.164;2023-09-12T06:03:21;18.00;99.90
18317;DHT22;9284;52.298;21.164;2023-09-12T06:05:50;18.10;99.90
18317;DHT22;9284;52.298;21.164;2023-09-12T06:08:18;18.10;99.90
18317;DHT22;9284;52.298;21.164;2023-09-12T06:10:47;18.30;99.90
18317;DHT22;9284;52.298;21.164;2023-09-12T06:13:17;19.00;99.90
18317;DHT22;9284;52.298;21.164;2023-09-12T06:15:45;19.10;99.90
18317;DHT22;9284;52.298;21.164;2023-09-12T06:18:14;19.10;99.90
18317;DHT22;9284;52.298;21.164;2023-09-12T06:20:43;19.10;99.90
18317;DHT22;9284;52.298;21.164;2023-09-12T06:23:11;19.50;99.90
18317;DHT22;9284;52.298;21.164;2023-09-12T06:25:40;20.30;99.90
18317;DHT22;9284;52.298;21.164;2023-09-12T06:28:09;21.30;99.90
18317;DHT22;9284;52.298;21.164;2023-09-12T06:30:39;22.10;99.90
18317;DHT22;9284;52.298;21.164;2023-09-12T06:33:07;22.60;99.90
18317;DHT22;9284;52.298;21.164;2023-09-12T06:35:37;23.00;99.90
18317;DHT22;9284;52.298;21.164;2023-09-12T06:38:08;22.80;99.90
18317;DHT22;9284;52.298;21.164;2023-09-12T06:40:37;23.00;99.90
18317;DHT22;9284;52.298;21.164;2023-09-12T06:43:05;23.60;99.90
18317;DHT22;9284;52.298;21.164;2023-09-12T06:45:33;23.50;99.90
18317;DHT22;9284;52.298;21.164;2023-09-12T06:48:06;23.40;99.90
18317;DHT22;9284;52.298;21.164;2023-09-12T06:50:35;23.30;99.90
18317;DHT22;9284;52.298;21.164;2023-09-12T06:53:05;22.70;99.90
18317;DHT22;9284;52.298;21.164;2023-09-12T06:55:34;23.10;99.90
18317;DHT22;9284;52.298;21.164;2023-09-12T06:58:03;23.80;99.90
18317;DHT22;9284;52.298;21.164;2023-09-12T07:00:31;24.20;99.90
18317;DHT22;9284;52.298;21.164;2023-09-12T07:03:00;23.60;99.90
18317;DHT22;9284;52.298;21.164;2023-09-12T07:05:29;24.10;99.90
18317;DHT22;9284;52.298;21.164;2023-09-12T07:07:58;24.70;99.90
18317;DHT22;9284;52.298;21.164;2023-09-12T07:10:28;25.30;99.90
18317;DHT22;9284;52.298;21.164;2023-09-12T07:12:57;26.00;99.90
18317;DHT22;9284;52.298;21.164;2023-09-12T07:15:26;26.40;99.90
18317;DHT22;9284;52.298;21.164;2023-09-12T07:17:56;26.70;99.90
18317;DHT22;9284;52.298;21.164;2023-09-12T07:20:26;27.30;99.90
18317;DHT22;9284;52.298;21.164;2023-09-12T07:22:57;28.00;99.90
18317;DHT22;9284;52.298;21.164;2023-09-12T07:25:25;28.20;99.90
18317;DHT22;9284;52.298;21.164;2023-09-12T07:27:54;28.90;99.90
18317;DHT22;9284;52.298;21.164;2023-09-12T07:30:23;29.70;99.90
18317;DHT22;9284;52.298;21.164;2023-09-12T07:32:52;29.10;99.90
18317;DHT22;9284;52.298;21.164;2023-09-12T07:35:20;29.20;99.90
18317;DHT22;9284;52.298;21.164;2023-09-12T07:37:51;29.70;99.90
18317;DHT22;9284;52.298;21.164;2023-09-12T07:40:21;29.70;99.90
18317;DHT22;9284;52.298;21.164;2023-09-12T07:42:50;29.80;99.90
18317;DHT22;9284;52.298;21.164;2023-09-12T07:45:18;30.10;99.90
18317;DHT22;9284;52.298;21.164;2023-09-12T07:47:47;29.70;99.90
18317;DHT22;9284;52.298;21.164;2023-09-12T07:50:16;30.00;99.90
18317;DHT22;9284;52.298;21.164;2023-09-12T07:52:45;29.40;99.90
18317;DHT22;9284;52.298;21.164;2023-09-12T07:55:13;29.80;99.90
18317;DHT22;9284;52.298;21.164;2023-09-12T07:57:43;29.60;99.90
18317;DHT22;9284;52.298;21.164;2023-09-12T08:00:13;29.50;99.90
18317;DHT22;9284;52.298;21.164;2023-09-12T08:02:41;29.80;99.90
18317;DHT22;9284;52.298;21.164;2023-09-12T08:05:10;29.70;99.90
18317;DHT22;9284;52.298;21.164;2023-09-12T08:07:39;29.40;99.00
18317;DHT22;9284;52.298;21.164;2023-09-12T08:10:08;29.40;99.00
18317;DHT22;9284;52.298;21.164;2023-09-12T08:12:36;29.50;98.10
18317;DHT22;9284;52.298;21.164;2023-09-12T08:15:09;28.90;97.90
18317;DHT22;9284;52.298;21.164;2023-09-12T08:17:38;28.70;99.90
18317;DHT22;9284;52.298;21.164;2023-09-12T08:20:08;28.80;99.90
18317;DHT22;9284;52.298;21.164;2023-09-12T08:22:38;28.70;99.90
18317;DHT22;9284;52.298;21.164;2023-09-12T08:25:07;28.50;99.90
18317;DHT22;9284;52.298;21.164;2023-09-12T08:27:36;28.10;99.90
18317;DHT22;9284;52.298;21.164;2023-09-12T08:30:05;28.20;99.90
18317;DHT22;9284;52.298;21.164;2023-09-12T08:32:35;28.10;99.90
18317;DHT22;9284;52.298;21.164;2023-09-12T08:35:07;28.10;99.90
18317;DHT22;9284;52.298;21.164;2023-09-12T08:37:36;28.10;99.90
18317;DHT22;9284;52.298;21.164;2023-09-12T08:40:05;28.20;99.90
18317;DHT22;9284;52.298;21.164;2023-09-12T08:42:39;28.10;99.90
18317;DHT22;9284;52.298;21.164;2023-09-12T08:45:13;28.00;99.90
18317;DHT22;9284;52.298;21.164;2023-09-12T08:47:45;27.70;99.90
18317;DHT22;9284;52.298;21.164;2023-09-12T08:50:15;27.90;99.90
18317;DHT22;9284;52.298;21.164;2023-09-12T08:52:45;27.70;99.90
18317;DHT22;9284;52.298;21.164;2023-09-12T08:55:34;27.60;99.90
18317;DHT22;9284;52.298;21.164;2023-09-12T08:58:05;27.40;99.90
18317;DHT22;9284;52.298;21.164;2023-09-12T09:00:34;27.50;99.90
18317;DHT22;9284;52.298;21.164;2023-09-12T09:03:06;27.40;99.90
18317;DHT22;9284;52.298;21.164;2023-09-12T09:05:36;27.60;99.90
18317;DHT22;9284;52.298;21.164;2023-09-12T09:08:06;27.60;99.90
18317;DHT22;9284;52.298;21.164;2023-09-12T09:10:36;27.50;99.90
18317;DHT22;9284;52.298;21.164;2023-09-12T09:13:17;27.70;99.90
18317;DHT22;9284;52.298;21.164;2023-09-12T09:15:46;27.80;99.90
18317;DHT22;9284;52.298;21.164;2023-09-12T09:18:16;27.90;99.90
18317;DHT22;9284;52.298;21.164;2023-09-12T09:20:45;27.90;99.90
18317;DHT22;9284;52.298;21.164;2023-09-12T09:23:16;27.90;99.40
18317;DHT22;9284;52.298;21.164;2023-09-12T09:25:51;27.90;99.00
18317;DHT22;9284;52.298;21.164;2023-09-12T09:28:21;28.00;99.20
18317;DHT22;9284;52.298;21.164;2023-09-12T09:30:51;28.00;98.10
18317;DHT22;9284;52.298;21.164;2023-09-12T09:33:23;27.90;99.10
18317;DHT22;9284;52.298;21.164;2023-09-12T09:36:02;28.00;99.40
18317;DHT22;9284;52.298;21.164;2023-09-12T09:38:32;28.10;99.00
18317;DHT22;9284;52.298;21.164;2023-09-12T09:41:04;28.10;98.20
18317;DHT22;9284;52.298;21.164;2023-09-12T09:43:34;28.10;98.50
18317;DHT22;9284;52.298;21.164;2023-09-12T09:46:03;28.10;97.20
18317;DHT22;9284;52.298;21.164;2023-09-12T09:48:33;28.10;97.80
18317;DHT22;9284;52.298;21.164;2023-09-12T09:51:03;28.20;97.80
18317;DHT22;9284;52.298;21.164;2023-09-12T09:53:32;28.20;98.40
18317;DHT22;9284;52.298;21.164;2023-09-12T09:56:08;28.30;96.50
18317;DHT22;9284;52.298;21.164;2023-09-12T09:58:41;28.40;96.60
18317;DHT22;9284;52.298;21.164;2023-09-12T10:01:10;28.50;95.10
18317;DHT22;9284;52.298;21.164;2023-09-12T10:03:42;28.70;96.30
18317;DHT22;9284;52.298;21.164;2023-09-12T10:06:15;28.70;94.60
18317;DHT22;9284;52.298;21.164;2023-09-12T10:08:44;28.70;93.40
18317;DHT22;9284;52.298;21.164;2023-09-12T10:11:14;28.70;95.10
18317;DHT22;9284;52.298;21.164;2023-09-12T10:13:48;28.90;94.30
18317;DHT22;9284;52.298;21.164;2023-09-12T10:16:18;29.10;93.00
18317;DHT22;9284;52.298;21.164;2023-09-12T10:18:59;29.00;92.80
18317;DHT22;9284;52.298;21.164;2023-09-12T10:21:30;29.00;90.40
18317;DHT22;9284;52.298;21.164;2023-09-12T10:24:00;28.90;91.20
18317;DHT22;9284;52.298;21.164;2023-09-12T10:26:31;28.90;88.80
18317;DHT22;9284;52.298;21.164;2023-09-12T10:29:02;28.70;88.50
18317;DHT22;9284;52.298;21.164;2023-09-12T10:31:32;28.50;90.40
18317;DHT22;9284;52.298;21.164;2023-09-12T10:34:03;28.20;89.10
18317;DHT22;9284;52.298;21.164;2023-09-12T10:36:34;28.10;88.30
18317;DHT22;9284;52.298;21.164;2023-09-12T10:39:04;28.30;90.30
18317;DHT22;9284;52.298;21.164;2023-09-12T10:41:37;28.60;91.00
18317;DHT22;9284;52.298;21.164;2023-09-12T10:44:09;28.80;88.70
18317;DHT22;9284;52.298;21.164;2023-09-12T10:46:39;29.20;88.20
18317;DHT22;9284;52.298;21.164;2023-09-12T10:49:10;29.30;84.00
18317;DHT22;9284;52.298;21.164;2023-09-12T10:51:40;29.70;85.90
18317;DHT22;9284;52.298;21.164;2023-09-12T10:54:13;29.90;79.40
18317;DHT22;9284;52.298;21.164;2023-09-12T10:56:42;30.40;79.40
18317;DHT22;9284;52.298;21.164;2023-09-12T10:59:13;30.70;78.60
18317;DHT22;9284;52.298;21.164;2023-09-12T11:01:43;31.20;78.80
18317;DHT22;9284;52.298;21.164;2023-09-12T11:04:32;30.80;76.40
18317;DHT22;9284;52.298;21.164;2023-09-12T11:07:01;31.00;75.90
18317;DHT22;9284;52.298;21.164;2023-09-12T11:10:18;31.00;75.30
18317;DHT22;9284;52.298;21.164;2023-09-12T11:12:49;30.90;76.00
18317;DHT22;9284;52.298;21.164;2023-09-12T11:15:19;30.80;76.00
18317;DHT22;9284;52.298;21.164;2023-09-12T11:17:49;30.70;73.50
18317;DHT22;9284;52.298;21.164;2023-09-12T11:20:19;30.70;74.30
18317;DHT22;9284;52.298;21.164;2023-09-12T11:22:50;30.30;77.40
18317;DHT22;9284;52.298;21.164;2023-09-12T11:25:20;30.30;75.30
18317;DHT22;9284;52.298;21.164;2023-09-12T11:28:04;30.30;73.60
18317;DHT22;9284;52.298;21.164;2023-09-12T11:30:33;30.10;73.00
18317;DHT22;9284;52.298;21.164;2023-09-12T11:33:04;30.00;74.70
18317;DHT22;9284;52.298;21.164;2023-09-12T11:35:38;30.20;73.40
18317;DHT22;9284;52.298;21.164;2023-09-12T11:38:10;30.00;72.90
18317;DHT22;9284;52.298;21.164;2023-09-12T11:40:44;30.10;72.60
18317;DHT22;9284;52.298;21.164;2023-09-12T11:43:23;30.40;71.70
18317;DHT22;9284;52.298;21.164;2023-09-12T11:45:52;30.20;71.20
18317;DHT22;9284;52.298;21.164;2023-09-12T11:48:22;30.10;73.60
18317;DHT22;9284;52.298;21.164;2023-09-12T11:50:54;30.00;71.20
18317;DHT22;9284;52.298;21.164;2023-09-12T11:53:24;30.00;71.00
18317;DHT22;9284;52.298;21.164;2023-09-12T11:55:56;29.90;69.60
18317;DHT22;9284;52.298;21.164;2023-09-12T11:58:26;30.00;70.70
18317;DHT22;9284;52.298;21.164;2023-09-12T12:00:56;29.80;68.30
18317;DHT22;9284;52.298;21.164;2023-09-12T12:03:27;29.60;69.30
18317;DHT22;9284;52.298;21.164;2023-09-12T12:06:06;29.60;71.50
18317;DHT22;9284;52.298;21.164;2023-09-12T12:08:35;29.60;71.70
18317;DHT22;9284;52.298;21.164;2023-09-12T12:11:06;29.60;69.30
18317;DHT22;9284;52.298;21.164;2023-09-12T12:13:35;29.60;68.70
18317;DHT22;9284;52.298;21.164;2023-09-12T12:16:14;29.50;69.20
18317;DHT22;9284;52.298;21.164;2023-09-12T12:18:44;29.50;68.70
18317;DHT22;9284;52.298;21.164;2023-09-12T12:21:14;29.60;70.30
18317;DHT22;9284;52.298;21.164;2023-09-12T12:23:43;29.60;71.70
18317;DHT22;9284;52.298;21.164;2023-09-12T12:26:12;29.00;66.50
18317;DHT22;9284;52.298;21.164;2023-09-12T12:28:41;28.80;68.70
18317;DHT22;9284;52.298;21.164;2023-09-12T12:31:10;28.80;68.10
18317;DHT22;9284;52.298;21.164;2023-09-12T12:33:38;28.80;67.20
18317;DHT22;9284;52.298;21.164;2023-09-12T12:36:29;29.00;68.90
18317;DHT22;9284;52.298;21.164;2023-09-12T12:38:59;29.00;67.20
18317;DHT22;9284;52.298;21.164;2023-09-12T12:41:29;29.00;68.00
18317;DHT22;9284;52.298;21.164;2023-09-12T12:44:15;29.10;71.20
18317;DHT22;9284;52.298;21.164;2023-09-12T12:46:51;29.10;67.60
18317;DHT22;9284;52.298;21.164;2023-09-12T12:49:21;29.20;67.30
18317;DHT22;9284;52.298;21.164;2023-09-12T12:51:53;29.10;67.30
18317;DHT22;9284;52.298;21.164;2023-09-12T12:54:23;28.90;68.10
18317;DHT22;9284;52.298;21.164;2023-09-12T12:56:51;28.90;68.10
18317;DHT22;9284;52.298;21.164;2023-09-12T12:59:20;28.90;70.50
18317;DHT22;9284;52.298;21.164;2023-09-12T13:01:50;29.00;71.50
18317;DHT22;9284;52.298;21.164;2023-09-12T13:04:20;29.00;72.60
18317;DHT22;9284;52.298;21.164;2023-09-12T13:06:50;29.10;71.20
18317;DHT22;9284;52.298;21.164;2023-09-12T13:09:19;29.10;68.60
18317;DHT22;9284;52.298;21.164;2023-09-12T13:11:47;29.10;69.00
18317;DHT22;9284;52.298;21.164;2023-09-12T13:14:15;29.10;71.90
18317;DHT22;9284;52.298;21.164;2023-09-12T13:16:46;29.00;71.90
18317;DHT22;9284;52.298;21.164;2023-09-12T13:19:14;29.10;72.40
18317;DHT22;9284;52.298;21.164;2023-09-12T13:21:43;29.10;73.00
18317;DHT22;9284;52.298;21.164;2023-09-12T13:24:13;29.10;71.20
18317;DHT22;9284;52.298;21.164;2023-09-12T13:26:42;29.10;67.30
18317;DHT22;9284;52.298;21.164;2023-09-12T13:29:12;29.10;68.30
18317;DHT22;9284;52.298;21.164;2023-09-12T13:31:40;29.20;68.80
18317;DHT22;9284;52.298;21.164;2023-09-12T13:34:08;29.30;70.00
18317;DHT22;9284;52.298;21.164;2023-09-12T13:36:37;29.40;70.80
18317;DHT22;9284;52.298;21.164;2023-09-12T13:39:06;29.30;71.30
18317;DHT22;9284;52.298;21.164;2023-09-12T13:41:36;29.40;71.60
18317;DHT22;9284;52.298;21.164;2023-09-12T13:44:06;29.40;73.70
18317;DHT22;9284;52.298;21.164;2023-09-12T13:46:35;29.50;73.40
18317;DHT22;9284;52.298;21.164;2023-09-12T13:49:04;29.40;72.90
18317;DHT22;9284;52.298;21.164;2023-09-12T13:51:32;29.40;73.50
18317;DHT22;9284;52.298;21.164;2023-09-12T13:54:01;29.20;73.10
18317;DHT22;9284;52.298;21.164;2023-09-12T13:56:30;29.10;71.60
18317;DHT22;9284;52.298;21.164;2023-09-12T13:59:00;29.10;72.50
18317;DHT22;9284;52.298;21.164;2023-09-12T14:01:32;29.00;70.00
18317;DHT22;9284;52.298;21.164;2023-09-12T14:04:04;29.00;72.10
18317;DHT22;9284;52.298;21.164;2023-09-12T14:06:34;29.00;73.00
18317;DHT22;9284;52.298;21.164;2023-09-12T14:09:04;29.00;73.00
18317;DHT22;9284;52.298;21.164;2023-09-12T14:11:40;28.90;72.50
18317;DHT22;9284;52.298;21.164;2023-09-12T14:14:21;28.90;71.40
18317;DHT22;9284;52.298;21.164;2023-09-12T14:16:57;28.80;72.10
18317;DHT22;9284;52.298;21.164;2023-09-12T14:19:28;28.70;73.10
18317;DHT22;9284;52.298;21.164;2023-09-12T14:21:57;28.60;73.90
18317;DHT22;9284;52.298;21.164;2023-09-12T14:24:26;28.40;75.30
18317;DHT22;9284;52.298;21.164;2023-09-12T14:26:55;28.40;75.30
18317;DHT22;9284;52.298;21.164;2023-09-12T14:29:25;28.30;76.90
18317;DHT22;9284;52.298;21.164;2023-09-12T14:31:56;28.30;69.30
18317;DHT22;9284;52.298;21.164;2023-09-12T14:34:26;28.30;68.60
18317;DHT22;9284;52.298;21.164;2023-09-12T14:36:55;28.30;70.50
18317;DHT22;9284;52.298;21.164;2023-09-12T14:39:24;28.20;72.00
18317;DHT22;9284;52.298;21.164;2023-09-12T14:41:53;28.20;70.50
18317;DHT22;9284;52.298;21.164;2023-09-12T14:44:21;28.00;76.60
18317;DHT22;9284;52.298;21.164;2023-09-12T14:46:51;27.90;73.30
18317;DHT22;9284;52.298;21.164;2023-09-12T14:49:21;27.80;73.40
18317;DHT22;9284;52.298;21.164;2023-09-12T14:51:49;27.80;75.40
18317;DHT22;9284;52.298;21.164;2023-09-12T14:54:18;27.80;74.80
18317;DHT22;9284;52.298;21.164;2023-09-12T14:56:46;27.80;74.50
18317;DHT22;9284;52.298;21.164;2023-09-12T14:59:14;27.70;81.10
18317;DHT22;9284;52.298;21.164;2023-09-12T15:01:43;27.60;81.30
18317;DHT22;9284;52.298;21.164;2023-09-12T15:04:13;27.50;82.30
18317;DHT22;9284;52.298;21.164;2023-09-12T15:06:42;27.50;77.70
18317;DHT22;9284;52.298;21.164;2023-09-12T15:09:11;27.40;80.30
18317;DHT22;9284;52.298;21.164;2023-09-12T15:11:40;27.30;79.40
18317;DHT22;9284;52.298;21.164;2023-09-12T15:14:08;27.30;80.40
18317;DHT22;9284;52.298;21.164;2023-09-12T15:16:36;27.30;79.90
18317;DHT22;9284;52.298;21.164;2023-09-12T15:19:05;27.20;81.50
18317;DHT22;9284;52.298;21.164;2023-09-12T15:21:35;27.10;82.90
18317;DHT22;9284;52.298;21.164;2023-09-12T15:24:04;27.10;85.30
18317;DHT22;9284;52.298;21.164;2023-09-12T15:26:33;26.90;86.70
18317;DHT22;9284;52.298;21.164;2023-09-12T15:29:02;26.80;85.90
18317;DHT22;9284;52.298;21.164;2023-09-12T15:31:31;26.80;88.00
18317;DHT22;9284;52.298;21.164;2023-09-12T15:34:00;26.70;90.60
18317;DHT22;9284;52.298;21.164;2023-09-12T15:36:28;26.60;91.20
18317;DHT22;9284;52.298;21.164;2023-09-12T15:38:58;26.40;92.00
18317;DHT22;9284;52.298;21.164;2023-09-12T15:41:27;26.30;93.10
18317;DHT22;9284;52.298;21.164;2023-09-12T15:43:55;26.10;93.10
18317;DHT22;9284;52.298;21.164;2023-09-12T15:46:41;26.00;92.80
18317;DHT22;9284;52.298;21.164;2023-09-12T15:49:10;25.90;93.60
18317;DHT22;9284;52.298;21.164;2023-09-12T15:51:38;25.80;93.60